createdAt,value
2022-11-21T00:01:21.392Z,0.63
2022-11-21T00:03:48.861Z,0.65
2022-11-21T00:06:16.305Z,0.65
2022-11-21T00:08:43.364Z,0.67
2022-11-21T00:11:13.652Z,0.69
2022-11-21T00:13:41.349Z,0.74
2022-11-21T00:16:11.420Z,0.76
2022-11-21T00:18:38.667Z,0.61
2022-11-21T00:21:12.343Z,0.63
2022-11-21T00:23:39.478Z,0.63
2022-11-21T00:26:08.527Z,0.70
2022-11-21T00:28:36.026Z,0.65
2022-11-21T00:31:05.110Z,0.67
2022-11-21T00:33:34.703Z,0.65
2022-11-21T00:36:11.164Z,0.68
2022-11-21T00:38:38.510Z,0.78
2022-11-21T00:41:06.426Z,0.74
2022-11-21T00:43:34.104Z,0.75
2022-11-21T00:46:02.949Z,0.87
2022-11-21T00:48:31.583Z,0.87
2022-11-21T00:51:00.797Z,0.87
2022-11-21T00:53:28.517Z,0.88
2022-11-21T00:55:56.166Z,0.80
2022-11-21T00:58:23.328Z,0.79
2022-11-21T01:00:50.416Z,0.61
2022-11-21T01:03:17.870Z,0.65
2022-11-21T01:05:45.546Z,0.59
2022-11-21T01:08:12.496Z,0.37
2022-11-21T01:10:39.671Z,0.44
2022-11-21T01:13:08.533Z,0.53
2022-11-21T01:15:35.736Z,0.51
2022-11-21T01:18:02.882Z,0.48
2022-11-21T01:20:29.909Z,0.54
2022-11-21T01:22:56.947Z,0.60
2022-11-21T01:25:23.985Z,0.60
2022-11-21T01:27:51.186Z,0.61
2022-11-21T01:30:18.361Z,0.63
2022-11-21T01:32:48.939Z,0.64
2022-11-21T01:35:16.726Z,0.64
2022-11-21T01:37:46.526Z,0.63
2022-11-21T01:40:13.617Z,0.56
2022-11-21T01:43:12.471Z,0.65
2022-11-21T01:45:58.293Z,0.60
2022-11-21T01:48:56.338Z,0.61
2022-11-21T01:51:42.379Z,0.67
2022-11-21T01:54:47.613Z,0.72
2022-11-21T01:57:32.175Z,0.65
2022-11-21T02:00:04.863Z,0.60
2022-11-21T02:02:36.729Z,0.62
2022-11-21T02:05:06.988Z,0.55
2022-11-21T02:07:40.977Z,0.55
2022-11-21T02:10:10.043Z,0.48
2022-11-21T02:12:52.339Z,0.40
2022-11-21T02:15:22.747Z,0.38
2022-11-21T02:17:49.995Z,0.40
2022-11-21T02:20:20.132Z,0.40
2022-11-21T02:23:06.539Z,0.27
2022-11-21T02:25:38.451Z,0.28
2022-11-21T02:28:26.539Z,0.19
2022-11-21T02:30:57.929Z,0.16
2022-11-21T02:33:26.180Z,0.17
2022-11-21T02:36:02.492Z,0.04
2022-11-21T02:38:33.868Z,0.16
2022-11-21T02:41:15.147Z,0.27
2022-11-21T02:43:55.881Z,0.18
2022-11-21T02:46:24.124Z,-0.04
2022-11-21T02:48:51.961Z,-0.10
2022-11-21T02:51:27.672Z,-0.15
2022-11-21T02:54:04.121Z,-0.28
2022-11-21T02:56:31.965Z,-0.57
2022-11-21T02:59:01.237Z,-0.47
2022-11-21T03:01:31.078Z,-0.57
2022-11-21T03:03:58.199Z,-0.48
2022-11-21T03:06:25.900Z,-0.57
2022-11-21T03:08:53.629Z,-0.61
2022-11-21T03:11:22.659Z,-0.51
2022-11-21T03:13:49.766Z,-0.35
2022-11-21T03:16:17.173Z,-0.30
2022-11-21T03:18:44.341Z,-0.36
2022-11-21T03:21:11.728Z,-0.22
2022-11-21T03:23:39.537Z,-0.39
2022-11-21T03:26:06.996Z,-0.18
2022-11-21T03:28:36.344Z,-0.49
2022-11-21T03:31:03.408Z,-0.44
2022-11-21T03:33:30.716Z,-0.40
2022-11-21T03:35:58.102Z,-0.54
2022-11-21T03:38:25.053Z,-0.75
2022-11-21T03:40:52.127Z,-0.69
2022-11-21T03:43:19.513Z,-0.71
2022-11-21T03:45:51.130Z,-0.67
2022-11-21T03:48:18.128Z,-0.77
2022-11-21T03:50:45.005Z,-0.77
2022-11-21T03:53:15.248Z,-0.71
2022-11-21T03:55:43.288Z,-0.63
2022-11-21T03:58:10.448Z,-0.58
2022-11-21T04:00:37.451Z,-0.49
2022-11-21T04:03:04.489Z,-0.40
2022-11-21T04:05:31.572Z,-0.43
2022-11-21T04:07:58.531Z,-0.48
2022-11-21T04:10:25.720Z,-0.50
2022-11-21T04:12:52.608Z,-0.50
2022-11-21T04:15:19.830Z,-0.55
2022-11-21T04:17:46.801Z,-0.49
2022-11-21T04:20:16.934Z,-0.52
2022-11-21T04:22:44.132Z,-0.55
2022-11-21T04:25:11.183Z,-0.61
2022-11-21T04:27:38.263Z,-0.55
2022-11-21T04:30:06.510Z,-0.56
2022-11-21T04:32:38.246Z,-0.47
2022-11-21T04:35:05.833Z,-0.66
2022-11-21T04:37:33.187Z,-0.55
2022-11-21T04:40:00.206Z,-0.56
2022-11-21T04:42:27.578Z,-0.54
2022-11-21T04:44:54.594Z,-0.49
2022-11-21T04:47:21.610Z,-0.63
2022-11-21T04:49:48.726Z,-0.66
2022-11-21T04:52:16.256Z,-0.56
2022-11-21T04:54:43.288Z,-0.60
2022-11-21T04:57:10.888Z,-0.62
2022-11-21T04:59:37.838Z,-0.62
2022-11-21T05:02:05.118Z,-0.57
2022-11-21T05:04:32.089Z,-0.62
2022-11-21T05:07:01.260Z,-0.58
2022-11-21T05:09:31.237Z,-0.46
2022-11-21T05:12:16.823Z,-0.62
2022-11-21T05:14:43.985Z,-0.60
2022-11-21T05:17:10.940Z,-0.64
2022-11-21T05:19:38.068Z,-0.70
2022-11-21T05:22:05.094Z,-0.89
2022-11-21T05:24:32.002Z,-0.91
2022-11-21T05:26:59.119Z,-0.82
2022-11-21T05:29:28.285Z,-0.93
2022-11-21T05:31:55.822Z,-0.83
2022-11-21T05:34:23.425Z,-0.81
2022-11-21T05:36:57.270Z,-0.79
2022-11-21T05:39:24.993Z,-0.73
2022-11-21T05:41:52.453Z,-0.81
2022-11-21T05:44:19.624Z,-0.77
2022-11-21T05:46:47.209Z,-0.63
2022-11-21T05:49:14.262Z,-0.58
2022-11-21T05:51:41.374Z,-0.64
2022-11-21T05:54:08.396Z,-0.58
2022-11-21T05:56:35.382Z,-0.58
2022-11-21T05:59:02.384Z,-0.66
2022-11-21T06:01:48.247Z,-0.78
2022-11-21T06:04:15.158Z,-0.83
2022-11-21T06:06:42.271Z,-0.77
2022-11-21T06:09:09.326Z,-1.01
2022-11-21T06:11:36.273Z,-1.08
2022-11-21T06:14:03.294Z,-1.04
2022-11-21T06:16:32.426Z,-0.94
2022-11-21T06:18:59.543Z,-0.90
2022-11-21T06:21:29.090Z,-0.83
2022-11-21T06:23:58.009Z,-0.77
2022-11-21T06:26:27.460Z,-0.84
2022-11-21T06:28:55.221Z,-0.87
2022-11-21T06:31:24.668Z,-0.93
2022-11-21T06:33:55.709Z,-0.81
2022-11-21T06:36:23.169Z,-0.76
2022-11-21T06:38:50.143Z,-0.88
2022-11-21T06:41:19.349Z,-0.83
2022-11-21T06:43:46.802Z,-0.75
2022-11-21T06:46:15.141Z,-0.87
2022-11-21T06:48:43.396Z,-0.89
2022-11-21T06:51:16.823Z,-0.95
2022-11-21T06:53:44.044Z,-1.02
2022-11-21T06:56:11.032Z,-1.02
2022-11-21T06:58:38.101Z,-0.96
2022-11-21T07:01:07.942Z,-0.95
2022-11-21T07:03:36.245Z,-0.93
2022-11-21T07:06:04.496Z,-0.85
2022-11-21T07:08:34.650Z,-0.71
2022-11-21T07:11:25.482Z,-0.66
2022-11-21T07:13:53.497Z,-0.77
2022-11-21T07:16:20.657Z,-0.85
2022-11-21T07:18:47.859Z,-0.84
2022-11-21T07:21:14.956Z,-0.84
2022-11-21T07:23:42.055Z,-0.73
2022-11-21T07:26:10.590Z,-0.63
2022-11-21T07:28:37.533Z,-0.66
2022-11-21T07:31:10.124Z,-0.71
2022-11-21T07:33:40.098Z,-0.62
2022-11-21T07:36:07.599Z,-0.59
2022-11-21T07:38:34.629Z,-0.63
2022-11-21T07:41:01.570Z,-0.74
2022-11-21T07:43:28.615Z,-0.65
2022-11-21T07:45:56.211Z,-0.73
2022-11-21T07:48:23.230Z,-0.58
2022-11-21T07:50:50.245Z,-0.54
2022-11-21T07:53:17.305Z,-0.64
2022-11-21T07:55:44.395Z,-0.60
2022-11-21T07:58:15.116Z,-0.54
2022-11-21T08:00:43.188Z,-0.47
2022-11-21T08:03:17.006Z,-0.50
2022-11-21T08:05:48.360Z,-0.48
2022-11-21T08:08:15.873Z,-0.39
2022-11-21T08:10:45.260Z,-0.40
2022-11-21T08:13:13.846Z,-0.25
2022-11-21T08:15:42.554Z,-0.11
2022-11-21T08:18:10.381Z,-0.04
2022-11-21T08:20:38.206Z,0.01
2022-11-21T08:23:06.300Z,0.12
2022-11-21T08:25:34.976Z,0.28
2022-11-21T08:28:03.065Z,0.41
2022-11-21T08:30:31.194Z,0.49
2022-11-21T08:32:59.287Z,0.34
2022-11-21T08:35:27.326Z,0.47
2022-11-21T08:38:01.855Z,0.48
2022-11-21T08:40:31.524Z,0.29
2022-11-21T08:43:03.286Z,0.31
2022-11-21T08:45:31.563Z,0.52
2022-11-21T08:47:58.622Z,0.51
2022-11-21T08:50:26.278Z,0.50
2022-11-21T08:52:53.280Z,0.61
2022-11-21T08:55:20.538Z,0.58
2022-11-21T08:57:47.650Z,0.61
2022-11-21T09:00:15.330Z,0.54
2022-11-21T09:02:42.653Z,0.58
2022-11-21T09:05:09.996Z,0.67
2022-11-21T09:07:37.145Z,0.64
2022-11-21T09:10:04.725Z,0.74
2022-11-21T09:12:31.862Z,0.99
2022-11-21T09:15:17.460Z,1.19
2022-11-21T09:18:02.966Z,1.27
2022-11-21T09:20:34.900Z,1.29
2022-11-21T09:23:10.769Z,1.28
2022-11-21T09:25:38.642Z,1.31
2022-11-21T09:28:07.844Z,1.47
2022-11-21T09:30:35.064Z,1.37
2022-11-21T09:33:03.790Z,1.01
2022-11-21T09:35:33.418Z,0.99
2022-11-21T09:38:04.519Z,0.79
2022-11-21T09:40:33.427Z,0.73
2022-11-21T09:43:36.015Z,0.64
2022-11-21T09:46:15.350Z,0.62
2022-11-21T09:48:52.314Z,0.65
2022-11-21T09:51:52.380Z,0.38
2022-11-21T09:54:27.413Z,0.39
2022-11-21T09:56:56.396Z,0.29
2022-11-21T09:59:35.197Z,0.28
2022-11-21T10:02:03.577Z,0.18
2022-11-21T10:04:31.883Z,0.24
2022-11-21T10:07:11.752Z,0.26
2022-11-21T10:10:02.471Z,0.30
2022-11-21T10:12:39.853Z,0.29
2022-11-21T10:15:50.494Z,0.30
2022-11-21T10:18:28.354Z,0.35
2022-11-21T10:21:21.981Z,0.44
2022-11-21T10:24:08.711Z,0.41
2022-11-21T10:26:52.212Z,0.61
2022-11-21T10:29:42.306Z,0.29
2022-11-21T10:32:40.924Z,0.34
2022-11-21T10:35:21.871Z,0.38
2022-11-21T10:37:58.055Z,0.35
2022-11-21T10:40:37.180Z,0.33
2022-11-21T10:43:53.089Z,0.47
2022-11-21T10:46:20.891Z,0.51
2022-11-21T10:49:00.158Z,0.26
2022-11-21T10:51:53.588Z,0.12
2022-11-21T10:54:33.815Z,0.08
2022-11-21T10:57:14.974Z,0.08
2022-11-21T10:59:56.860Z,0.02
2022-11-21T11:02:26.388Z,0.09
2022-11-21T11:05:22.829Z,0.04
2022-11-21T11:08:22.685Z,0.07
2022-11-21T11:11:07.369Z,-0.04
2022-11-21T11:14:01.318Z,-0.20
2022-11-21T11:16:31.416Z,-0.12
2022-11-21T11:19:03.361Z,-0.02
2022-11-21T11:21:42.210Z,0.16
2022-11-21T11:24:12.516Z,0.12
2022-11-21T11:26:49.295Z,0.10
2022-11-21T11:29:21.343Z,-0.05
2022-11-21T11:32:21.647Z,-0.06
2022-11-21T11:34:52.239Z,-0.14
2022-11-21T11:37:47.092Z,-0.16
2022-11-21T11:40:43.020Z,-0.03
2022-11-21T11:43:52.669Z,-0.12
2022-11-21T11:47:07.888Z,-0.09
2022-11-21T11:50:13.304Z,-0.06
2022-11-21T11:52:55.458Z,0.03
2022-11-21T11:55:32.917Z,0.09
2022-11-21T11:58:02.686Z,-0.01
2022-11-21T12:00:40.817Z,-0.10
2022-11-21T12:03:18.194Z,-0.16
2022-11-21T12:06:09.204Z,-0.18
2022-11-21T12:09:16.554Z,-0.19
2022-11-21T12:12:07.436Z,-0.14
2022-11-21T12:15:02.227Z,-0.20
2022-11-21T12:17:51.305Z,-0.27
2022-11-21T12:20:23.306Z,-0.31
2022-11-21T12:22:53.670Z,-0.30
2022-11-21T12:25:30.534Z,-0.33
2022-11-21T12:27:57.625Z,-0.38
2022-11-21T12:30:54.444Z,-0.48
2022-11-21T12:33:23.497Z,-0.47
2022-11-21T12:35:50.444Z,-0.51
2022-11-21T12:38:44.935Z,-0.58
2022-11-21T12:42:14.180Z,-0.58
2022-11-21T12:44:47.135Z,-0.54
2022-11-21T12:47:29.190Z,-0.59
2022-11-21T12:50:37.546Z,-0.55
2022-11-21T12:53:40.252Z,-0.52
2022-11-21T12:56:19.646Z,-0.62
2022-11-21T12:58:52.894Z,-0.52
2022-11-21T13:01:39.668Z,-0.58
2022-11-21T13:04:16.605Z,-0.50
2022-11-21T13:06:45.499Z,-0.48
2022-11-21T13:09:19.281Z,-0.50
2022-11-21T13:12:13.919Z,-0.54
2022-11-21T13:15:09.091Z,-0.50
2022-11-21T13:18:14.010Z,-0.64
2022-11-21T13:20:47.819Z,-0.66
2022-11-21T13:23:39.121Z,-0.70
2022-11-21T13:26:38.429Z,-0.68
2022-11-21T13:29:11.366Z,-0.82
2022-11-21T13:31:39.378Z,-0.67
2022-11-21T13:34:31.895Z,-0.76
2022-11-21T13:36:59.400Z,-0.79
2022-11-21T13:39:31.888Z,-0.79
2022-11-21T13:42:23.503Z,-0.81
2022-11-21T13:44:51.328Z,-0.81
2022-11-21T13:48:01.367Z,-0.84
2022-11-21T13:50:45.681Z,-0.84
2022-11-21T13:53:30.977Z,-0.92
2022-11-21T13:56:27.508Z,-0.88
2022-11-21T13:59:06.107Z,-0.91
2022-11-21T14:02:04.122Z,-0.95
2022-11-21T14:04:49.369Z,-0.96
2022-11-21T14:07:27.659Z,-1.05
2022-11-21T14:09:56.705Z,-1.08
2022-11-21T14:12:44.428Z,-1.11
2022-11-21T14:15:24.035Z,-1.17
2022-11-21T14:17:56.212Z,-1.22
2022-11-21T14:24:30.598Z,-1.22
2022-11-21T14:26:58.621Z,-1.23
2022-11-21T14:29:39.417Z,-1.20
2022-11-21T14:32:13.835Z,-1.16
2022-11-21T14:34:40.945Z,-1.31
2022-11-21T14:37:08.351Z,-1.34
2022-11-21T14:39:44.053Z,-1.37
2022-11-21T14:42:20.889Z,-1.34
2022-11-21T14:45:05.619Z,-1.35
2022-11-21T14:47:32.656Z,-1.37
2022-11-21T14:50:07.235Z,-1.40
2022-11-21T14:52:35.192Z,-1.60
2022-11-21T14:55:34.649Z,-1.58
2022-11-21T14:58:04.080Z,-1.61
2022-11-21T15:03:24.791Z,-1.32
2022-11-21T15:06:06.279Z,-1.31
2022-11-21T15:11:30.114Z,-1.28
2022-11-21T15:14:18.240Z,-1.41
2022-11-21T15:16:51.570Z,-1.58
2022-11-21T15:19:24.711Z,-1.53
2022-11-21T15:21:54.275Z,-1.52
2022-11-21T15:24:43.568Z,-1.60
2022-11-21T15:27:29.057Z,-1.60
2022-11-21T15:30:09.464Z,-1.70
2022-11-21T15:33:05.042Z,-1.53
2022-11-21T15:35:38.470Z,-1.52
2022-11-21T15:38:22.296Z,-1.58
2022-11-21T15:41:08.144Z,-1.59
2022-11-21T15:43:48.135Z,-1.50
2022-11-21T15:46:32.288Z,-1.46
2022-11-21T15:49:31.512Z,-1.43
2022-11-21T15:52:10.503Z,-1.51
2022-11-21T15:54:38.298Z,-1.52
2022-11-21T15:57:05.299Z,-1.56
2022-11-21T15:59:32.604Z,-1.66
2022-11-21T16:01:59.789Z,-1.67
2022-11-21T16:04:27.440Z,-1.68
2022-11-21T16:06:55.095Z,-1.70
2022-11-21T16:09:22.281Z,-1.74
2022-11-21T16:11:49.365Z,-1.64
2022-11-21T16:14:18.693Z,-1.66
2022-11-21T16:16:47.560Z,-1.78
2022-11-21T16:19:15.816Z,-1.62
2022-11-21T16:21:42.914Z,-1.41
2022-11-21T16:24:10.075Z,-1.38
2022-11-21T16:26:37.198Z,-1.37
2022-11-21T16:29:07.048Z,-1.36
2022-11-21T16:31:34.295Z,-1.53
2022-11-21T16:34:03.581Z,-1.48
2022-11-21T16:36:33.333Z,-1.54
2022-11-21T16:39:09.919Z,-1.63
2022-11-21T16:43:03.187Z,-1.63
2022-11-21T16:45:32.640Z,-1.69
2022-11-21T16:47:59.920Z,-1.58
2022-11-21T16:50:40.182Z,-1.67
2022-11-21T16:53:09.735Z,-1.55
2022-11-21T16:55:36.927Z,-1.54
2022-11-21T16:58:03.965Z,-1.40
2022-11-21T17:00:31.538Z,-1.36
2022-11-21T17:02:58.822Z,-1.35
2022-11-21T17:05:25.969Z,-1.27
2022-11-21T17:07:53.219Z,-1.25
2022-11-21T17:10:20.372Z,-1.34
2022-11-21T17:12:47.387Z,-1.30
2022-11-21T17:15:16.536Z,-1.33
2022-11-21T17:17:43.736Z,-1.37
2022-11-21T17:20:11.204Z,-1.36
2022-11-21T17:22:40.513Z,-1.44
2022-11-21T17:25:07.977Z,-1.34
2022-11-21T17:27:38.548Z,-1.47
2022-11-21T17:30:16.064Z,-1.47
2022-11-21T17:32:43.503Z,-1.32
2022-11-21T17:35:11.839Z,-1.29
2022-11-21T17:37:47.325Z,-1.20
2022-11-21T17:40:15.585Z,-1.25
2022-11-21T17:42:48.798Z,-1.24
2022-11-21T17:45:16.378Z,-1.27
2022-11-21T17:47:49.088Z,-1.24
2022-11-21T17:50:16.666Z,-1.45
2022-11-21T17:52:45.023Z,-1.46
2022-11-21T17:55:12.472Z,-1.45
2022-11-21T17:57:39.934Z,-1.56
2022-11-21T18:00:08.500Z,-1.54
2022-11-21T18:02:36.016Z,-1.23
2022-11-21T18:05:03.210Z,-1.27
2022-11-21T18:07:31.235Z,-1.12
2022-11-21T18:10:14.304Z,-1.33
2022-11-21T18:17:09.717Z,-1.29
2022-11-21T18:19:38.950Z,-1.25
2022-11-21T18:22:15.660Z,-1.26
2022-11-21T18:24:42.714Z,-1.33
2022-11-21T18:27:09.874Z,-1.44
2022-11-21T18:29:38.019Z,-1.35
2022-11-21T18:32:10.234Z,-1.40
2022-11-21T18:34:37.344Z,-1.38
2022-11-21T18:37:04.896Z,-1.43
2022-11-21T18:39:34.421Z,-1.47
2022-11-21T18:42:03.974Z,-1.53
2022-11-21T18:44:30.984Z,-1.59
2022-11-21T18:47:00.986Z,-1.66
2022-11-21T18:49:28.351Z,-1.60
2022-11-21T18:51:56.815Z,-1.64
2022-11-21T18:54:24.122Z,-1.71
2022-11-21T18:56:51.322Z,-1.70
2022-11-21T18:59:20.588Z,-1.53
2022-11-21T19:01:56.310Z,-1.44
2022-11-21T19:04:23.641Z,-1.53
2022-11-21T19:06:50.556Z,-1.43
2022-11-21T19:09:19.045Z,-1.31
2022-11-21T19:11:49.793Z,-1.31
2022-11-21T19:14:16.800Z,-1.38
2022-11-21T19:16:43.961Z,-1.40
2022-11-21T19:22:01.296Z,-1.62
2022-11-21T19:24:29.905Z,-1.86
2022-11-21T19:27:06.028Z,-1.92
2022-11-21T19:29:39.489Z,-1.98
2022-11-21T19:32:06.574Z,-1.90
2022-11-21T19:34:33.595Z,-1.79
2022-11-21T19:37:03.274Z,-1.74
2022-11-21T19:39:33.187Z,-1.69
2022-11-21T19:42:03.433Z,-1.64
2022-11-21T19:44:30.507Z,-1.70
2022-11-21T19:46:57.436Z,-1.70
2022-11-21T19:49:24.528Z,-1.82
2022-11-21T19:51:53.948Z,-1.74
2022-11-21T19:54:20.898Z,-1.71
2022-11-21T19:56:48.053Z,-1.74
2022-11-21T19:59:18.532Z,-1.83
2022-11-21T20:01:52.321Z,-1.92
2022-11-21T20:04:20.143Z,-1.90
2022-11-21T20:06:48.171Z,-2.12
2022-11-21T20:09:18.871Z,-2.18
2022-11-21T20:11:51.490Z,-2.12
2022-11-21T20:14:22.400Z,-2.08
2022-11-21T20:16:52.990Z,-2.03
2022-11-21T20:19:22.611Z,-1.93
2022-11-21T20:21:50.618Z,-1.86
2022-11-21T20:24:17.841Z,-1.88
2022-11-21T20:26:45.009Z,-1.82
2022-11-21T20:29:18.588Z,-1.90
2022-11-21T20:31:50.122Z,-1.76
2022-11-21T20:34:17.127Z,-1.81
2022-11-21T20:36:44.287Z,-1.87
2022-11-21T20:39:18.924Z,-1.97
2022-11-21T20:41:50.385Z,-1.97
2022-11-21T20:47:08.647Z,-1.93
2022-11-21T20:49:35.929Z,-2.01
2022-11-21T20:54:49.789Z,-1.74
2022-11-21T20:57:16.858Z,-1.77
2022-11-21T20:59:43.924Z,-1.72
2022-11-21T21:02:12.479Z,-1.63
2022-11-21T21:04:39.841Z,-1.45
2022-11-21T21:07:06.838Z,-1.29
2022-11-21T21:09:33.834Z,-1.17
2022-11-21T21:12:00.845Z,-1.43
2022-11-21T21:14:27.903Z,-1.57
2022-11-21T21:16:54.952Z,-1.63
2022-11-21T21:19:21.966Z,-1.78
2022-11-21T21:21:49.418Z,-1.93
2022-11-21T21:24:17.409Z,-2.06
2022-11-21T21:26:47.360Z,-2.13
2022-11-21T21:29:17.628Z,-2.18
2022-11-21T21:31:50.435Z,-2.29
2022-11-21T21:34:19.649Z,-2.30
2022-11-21T21:36:47.232Z,-2.37
2022-11-21T21:39:14.584Z,-2.23
2022-11-21T21:41:44.677Z,-2.12
2022-11-21T21:44:12.693Z,-2.20
2022-11-21T21:46:39.797Z,-2.36
2022-11-21T21:49:06.726Z,-2.48
2022-11-21T21:51:33.693Z,-2.40
2022-11-21T21:54:00.834Z,-2.39
2022-11-21T21:56:29.520Z,-2.45
2022-11-21T21:58:58.007Z,-2.39
2022-11-21T22:01:26.403Z,-2.27
2022-11-21T22:04:01.608Z,-2.17
2022-11-21T22:06:29.972Z,-2.26
2022-11-21T22:08:57.139Z,-2.23
2022-11-21T22:11:26.887Z,-2.16
2022-11-21T22:14:02.552Z,-2.04
2022-11-21T22:16:30.193Z,-2.18
2022-11-21T22:19:00.589Z,-2.15
2022-11-21T22:21:32.671Z,-2.16
2022-11-21T22:24:24.814Z,-2.04
2022-11-21T22:26:49.607Z,-2.17
2022-11-21T22:29:16.948Z,-2.23
2022-11-21T22:31:43.955Z,-2.12
2022-11-21T22:34:14.484Z,-2.16
2022-11-21T22:36:41.922Z,-2.17
2022-11-21T22:39:09.242Z,-2.21
2022-11-21T22:41:36.295Z,-2.38
2022-11-21T22:44:03.482Z,-2.34
2022-11-21T22:46:32.018Z,-2.53
2022-11-21T22:48:59.315Z,-2.53
2022-11-21T22:51:31.718Z,-2.54
2022-11-21T22:53:58.669Z,-2.61
2022-11-21T22:56:28.309Z,-2.59
2022-11-21T22:58:56.227Z,-2.52
2022-11-21T23:01:25.991Z,-2.59
2022-11-21T23:03:55.929Z,-2.53
2022-11-21T23:06:27.500Z,-2.43
2022-11-21T23:08:56.737Z,-2.35
2022-11-21T23:11:27.801Z,-2.37
2022-11-21T23:13:56.569Z,-2.46
2022-11-21T23:16:23.939Z,-2.53
2022-11-21T23:18:54.892Z,-2.48
2022-11-21T23:21:25.176Z,-2.58
2022-11-21T23:23:52.189Z,-2.50
2022-11-21T23:26:19.303Z,-2.51
2022-11-21T23:28:46.632Z,-2.56
2022-11-21T23:31:13.814Z,-2.49
2022-11-21T23:33:41.023Z,-2.50
2022-11-21T23:36:08.011Z,-2.59
2022-11-21T23:38:35.263Z,-2.39
2022-11-21T23:41:02.257Z,-2.41
2022-11-21T23:43:29.520Z,-2.34
2022-11-21T23:45:56.539Z,-2.31
2022-11-21T23:48:27.466Z,-2.35
2022-11-21T23:50:54.985Z,-2.38
2022-11-21T23:53:22.595Z,-2.27
2022-11-21T23:55:49.633Z,-2.12
2022-11-21T23:58:16.772Z,-2.11
